PWSweather.com
Personal Weather Stations
Station Observations
KCTHAMDEN
Dunbar Hill, Hamden, CT 06514

Dunbar HillHamden, CT 06514

Lat: 41.365437, Lon: -72.956532

Elevation: 200

Station Type: Davis Vantage Pro2+

Latest ConditionsUpdated 2:45:01 PM EDT Friday, May 26, 2017
Currently Today's Max Today's Min Today's Average
Temperature 69.0°F20.6°C 69.0°F20.6°C 50.8°F10.4°C 55.8°F13.2°C
Dew Point 61.1°F16.2°C 61.1°F16.2°C 49.9°F9.9°C 53.7°F12.1°C
Winds 2.5 mph WSW4.0 kmh WSW 5.9 mph NW9.5 kmh NW - 2.1 mph 3.4 kmh
Wind Gusts 4.0 mph6.4 kmh 10.0 mph16.1 kmh - -
Humidity 76% 97% 74% 93%
Pressure 29.59 in1002.0 mb 29.59 in1002.0 mb 29.47 in998.0 mb -
Precipitation - 0.62 in15.7 mm - -
Hour Temp Dew Point Humidity Winds Wind Gusts Pressure Precip Precip Rate Daily Precip Total
02:45 PM 69.0°F20.6°C 61.1°F16.2°C 76% 2.5 mph WSW4.0 kmh WSW 4.0 mph6.4 kmh 29.59 in1002.0 mb - 0.00 in0.0 mm 0.62 in15.7 mm
02:30 PM 68.2°F20.1°C 61.1°F16.2°C 78% 2.1 mph ESE3.4 kmh ESE 3.0 mph4.8 kmh 29.59 in1002.0 mb - 0.00 in0.0 mm 0.62 in15.7 mm
02:15 PM 68.0°F20.0°C 59.7°F15.4°C 75% 1.5 mph W2.4 kmh W 3.0 mph4.8 kmh 29.59 in1002.0 mb - 0.00 in0.0 mm 0.62 in15.7 mm
02:00 PM 67.9°F19.9°C 59.3°F15.2°C 74% 2.1 mph WSW3.4 kmh WSW 4.0 mph6.4 kmh 29.58 in1001.7 mb - 0.00 in0.0 mm 0.62 in15.7 mm
01:45 PM 67.9°F19.9°C 60.4°F15.8°C 77% 3.9 mph SE6.3 kmh SE 8.0 mph12.9 kmh 29.58 in1001.7 mb - 0.00 in0.0 mm 0.62 in15.7 mm
01:30 PM 67.0°F19.4°C 60.6°F15.9°C 80% 1.0 mph WSW1.6 kmh WSW 2.0 mph3.2 kmh 29.58 in1001.7 mb - 0.00 in0.0 mm 0.62 in15.7 mm
01:15 PM 65.5°F18.6°C 59.9°F15.5°C 82% 1.1 mph N1.8 kmh N 2.0 mph3.2 kmh 29.58 in1001.7 mb - 0.00 in0.0 mm 0.62 in15.7 mm
01:00 PM 64.4°F18.0°C 59.5°F15.3°C 84% 1.9 mph SSW3.1 kmh SSW 4.0 mph6.4 kmh 29.59 in1002.0 mb - 0.00 in0.0 mm 0.62 in15.7 mm
12:45 PM 63.5°F17.5°C 59.6°F15.3°C 87% 1.4 mph ENE2.3 kmh ENE 2.0 mph3.2 kmh 29.58 in1001.7 mb - 0.00 in0.0 mm 0.62 in15.7 mm
12:30 PM 61.6°F16.4°C 57.4°F14.1°C 86% 1.2 mph SW1.9 kmh SW 4.0 mph6.4 kmh 29.59 in1002.0 mb - 0.00 in0.0 mm 0.62 in15.7 mm
12:15 PM 60.7°F15.9°C 56.8°F13.8°C 87% 1.4 mph NE2.3 kmh NE 2.0 mph3.2 kmh 29.59 in1002.0 mb - 0.00 in0.0 mm 0.62 in15.7 mm
12:00 PM 60.0°F15.6°C 55.8°F13.2°C 86% 1.7 mph SW2.7 kmh SW 4.0 mph6.4 kmh 29.58 in1001.7 mb - 0.00 in0.0 mm 0.62 in15.7 mm
11:45 AM 60.1°F15.6°C 56.2°F13.4°C 87% 1.9 mph SW3.1 kmh SW 4.0 mph6.4 kmh 29.58 in1001.7 mb - 0.00 in0.0 mm 0.62 in15.7 mm
11:30 AM 59.8°F15.4°C 56.6°F13.7°C 89% 1.7 mph SW2.7 kmh SW 7.0 mph11.3 kmh 29.58 in1001.7 mb - 0.00 in0.0 mm 0.62 in15.7 mm
11:15 AM 59.6°F15.3°C 56.7°F13.7°C 90% 2.0 mph ENE3.2 kmh ENE 3.0 mph4.8 kmh 29.57 in1001.4 mb - 0.00 in0.0 mm 0.62 in15.7 mm
11:00 AM 59.3°F15.2°C 56.7°F13.7°C 91% 2.6 mph WSW4.2 kmh WSW 4.0 mph6.4 kmh 29.57 in1001.4 mb - 0.00 in0.0 mm 0.62 in15.7 mm
10:45 AM 58.8°F14.9°C 55.9°F13.3°C 90% 1.3 mph SSE2.1 kmh SSE 4.0 mph6.4 kmh 29.57 in1001.4 mb - 0.00 in0.0 mm 0.62 in15.7 mm
10:30 AM 58.5°F14.7°C 56.2°F13.4°C 92% 2.4 mph WNW3.9 kmh WNW 4.0 mph6.4 kmh 29.56 in1001.0 mb - 0.00 in0.0 mm 0.62 in15.7 mm
10:15 AM 58.3°F14.6°C 56.6°F13.7°C 94% 2.2 mph SW3.5 kmh SW 3.0 mph4.8 kmh 29.56 in1001.0 mb - 0.00 in0.0 mm 0.62 in15.7 mm
10:00 AM 57.6°F14.2°C 56.5°F13.6°C 96% 1.3 mph SE2.1 kmh SE 3.0 mph4.8 kmh 29.55 in1000.7 mb - 0.00 in0.0 mm 0.62 in15.7 mm
09:45 AM 57.1°F13.9°C 56.2°F13.4°C 97% 2.5 mph SW4.0 kmh SW 5.0 mph8.0 kmh 29.55 in1000.7 mb - 0.00 in0.0 mm 0.62 in15.7 mm
09:30 AM 55.4°F13.0°C 54.6°F12.6°C 97% 0.8 mph N1.3 kmh N 2.0 mph3.2 kmh 29.56 in1001.0 mb - 0.00 in0.0 mm 0.62 in15.7 mm
09:15 AM 54.4°F12.4°C 53.6°F12.0°C 97% 1.2 mph W1.9 kmh W 3.0 mph4.8 kmh 29.56 in1001.0 mb - 0.00 in0.0 mm 0.62 in15.7 mm
09:00 AM 53.7°F12.1°C 52.9°F11.6°C 97% 1.6 mph SSE2.6 kmh SSE 3.0 mph4.8 kmh 29.56 in1001.0 mb - 0.00 in0.0 mm 0.62 in15.7 mm
08:45 AM 53.1°F11.7°C 52.3°F11.3°C 97% 1.6 mph WSW2.6 kmh WSW 3.0 mph4.8 kmh 29.56 in1001.0 mb - 0.00 in0.0 mm 0.62 in15.7 mm
08:30 AM 52.9°F11.6°C 52.1°F11.2°C 97% 1.9 mph W3.1 kmh W 3.0 mph4.8 kmh 29.55 in1000.7 mb - 0.00 in0.0 mm 0.62 in15.7 mm
08:15 AM 52.7°F11.5°C 51.8°F11.0°C 97% 0.7 mph NE1.1 kmh NE 2.0 mph3.2 kmh 29.55 in1000.7 mb - 0.00 in0.0 mm 0.62 in15.7 mm
08:00 AM 52.3°F11.3°C 51.5°F10.8°C 97% 1.1 mph NNE1.8 kmh NNE 2.0 mph3.2 kmh 29.55 in1000.7 mb - 0.00 in0.0 mm 0.62 in15.7 mm
07:45 AM 51.8°F11.0°C 51.0°F10.6°C 97% 0.4 mph NNE0.6 kmh NNE 1.0 mph1.6 kmh 29.55 in1000.7 mb - 0.01 in0.3 mm 0.62 in15.7 mm
07:30 AM 51.6°F10.9°C 50.8°F10.4°C 97% 0.5 mph N0.8 kmh N 1.0 mph1.6 kmh 29.55 in1000.7 mb - 0.02 in0.5 mm 0.61 in15.5 mm
07:15 AM 51.5°F10.8°C 50.7°F10.4°C 97% 0.4 mph NE0.6 kmh NE 1.0 mph1.6 kmh 29.54 in1000.3 mb - 0.01 in0.3 mm 0.59 in15.0 mm
07:00 AM 51.2°F10.7°C 50.4°F10.2°C 97% 0.5 mph N0.8 kmh N 1.0 mph1.6 kmh 29.54 in1000.3 mb - 0.01 in0.3 mm 0.59 in15.0 mm
06:45 AM 51.0°F10.6°C 50.2°F10.1°C 97% 0.5 mph NE0.8 kmh NE 1.0 mph1.6 kmh 29.53 in1000.0 mb - 0.01 in0.3 mm 0.58 in14.7 mm
06:30 AM 50.8°F10.4°C 50.0°F10.0°C 97% 2.7 mph N4.3 kmh N 4.0 mph6.4 kmh 29.53 in1000.0 mb - 0.01 in0.3 mm 0.57 in14.5 mm
06:15 AM 50.8°F10.4°C 50.0°F10.0°C 97% 3.2 mph WNW5.1 kmh WNW 3.0 mph4.8 kmh 29.52 in999.7 mb - 0.01 in0.3 mm 0.56 in14.2 mm
06:00 AM 50.8°F10.4°C 50.0°F10.0°C 97% 2.5 mph WNW4.0 kmh WNW 4.0 mph6.4 kmh 29.51 in999.3 mb - 0.00 in0.0 mm 0.55 in14.0 mm
05:45 AM 50.8°F10.4°C 50.0°F10.0°C 97% 1.8 mph WNW2.9 kmh WNW 3.0 mph4.8 kmh 29.50 in999.0 mb - 0.00 in0.0 mm 0.55 in14.0 mm
05:30 AM 50.9°F10.5°C 50.1°F10.1°C 97% 2.7 mph N4.3 kmh N 3.0 mph4.8 kmh 29.50 in999.0 mb - 0.01 in0.3 mm 0.55 in14.0 mm
05:15 AM 50.9°F10.5°C 50.1°F10.1°C 97% 1.2 mph W1.9 kmh W 6.0 mph9.7 kmh 29.49 in998.6 mb - 0.01 in0.3 mm 0.54 in13.7 mm
05:00 AM 50.9°F10.5°C 50.1°F10.1°C 97% 1.9 mph WNW3.1 kmh WNW 4.0 mph6.4 kmh 29.48 in998.3 mb - 0.03 in0.8 mm 0.53 in13.5 mm
04:45 AM 51.0°F10.6°C 49.9°F9.9°C 96% 3.2 mph N5.1 kmh N 9.0 mph14.5 kmh 29.48 in998.3 mb - 0.02 in0.5 mm 0.50 in12.7 mm
04:30 AM 51.1°F10.6°C 50.0°F10.0°C 96% 1.7 mph WNW2.7 kmh WNW 5.0 mph8.0 kmh 29.48 in998.3 mb - 0.03 in0.8 mm 0.48 in12.2 mm
04:15 AM 51.3°F10.7°C 50.4°F10.2°C 97% 3.0 mph WNW4.8 kmh WNW 6.0 mph9.7 kmh 29.48 in998.3 mb - 0.05 in1.3 mm 0.45 in11.4 mm
04:00 AM 51.3°F10.7°C 50.5°F10.3°C 97% 2.0 mph NE3.2 kmh NE 3.0 mph4.8 kmh 29.48 in998.3 mb - 0.04 in1.0 mm 0.40 in10.2 mm
03:45 AM 51.4°F10.8°C 50.6°F10.3°C 97% 4.6 mph N7.4 kmh N 4.0 mph6.4 kmh 29.48 in998.3 mb - 0.03 in0.8 mm 0.37 in9.4 mm
03:30 AM 51.4°F10.8°C 50.6°F10.3°C 97% 2.0 mph N3.2 kmh N 3.0 mph4.8 kmh 29.47 in998.0 mb - 0.01 in0.3 mm 0.34 in8.6 mm
03:15 AM 51.5°F10.8°C 50.7°F10.4°C 97% 2.8 mph W4.5 kmh W 5.0 mph8.0 kmh 29.48 in998.3 mb - 0.02 in0.5 mm 0.33 in8.4 mm
03:00 AM 51.7°F10.9°C 50.9°F10.5°C 97% 2.5 mph NE4.0 kmh NE 6.0 mph9.7 kmh 29.48 in998.3 mb - 0.02 in0.5 mm 0.32 in8.1 mm
02:45 AM 51.7°F10.9°C 50.6°F10.3°C 96% 1.6 mph WSW2.6 kmh WSW 4.0 mph6.4 kmh 29.48 in998.3 mb - 0.01 in0.3 mm 0.30 in7.6 mm
02:30 AM 51.9°F11.1°C 51.1°F10.6°C 97% 5.9 mph NW9.5 kmh NW 8.0 mph12.9 kmh 29.48 in998.3 mb - 0.00 in0.0 mm 0.29 in7.4 mm
02:15 AM 52.2°F11.2°C 51.4°F10.8°C 97% 3.8 mph W6.1 kmh W 7.0 mph11.3 kmh 29.48 in998.3 mb - 0.01 in0.3 mm 0.29 in7.4 mm
02:00 AM 52.5°F11.4°C 51.7°F10.9°C 97% 4.9 mph NW7.9 kmh NW 10.0 mph16.1 kmh 29.48 in998.3 mb - 0.02 in0.5 mm 0.28 in7.1 mm
01:45 AM 52.7°F11.5°C 51.9°F11.1°C 97% 2.3 mph N3.7 kmh N 5.0 mph8.0 kmh 29.49 in998.6 mb - 0.01 in0.3 mm 0.27 in6.9 mm
01:30 AM 53.0°F11.7°C 52.2°F11.2°C 97% 1.5 mph NE2.4 kmh NE 5.0 mph8.0 kmh 29.48 in998.3 mb - 0.02 in0.5 mm 0.26 in6.6 mm
01:15 AM 53.2°F11.8°C 52.4°F11.3°C 97% 2.4 mph WNW3.9 kmh WNW 5.0 mph8.0 kmh 29.49 in998.6 mb - 0.04 in1.0 mm 0.24 in6.1 mm
01:00 AM 53.4°F11.9°C 52.6°F11.4°C 97% 2.2 mph WNW3.5 kmh WNW 7.0 mph11.3 kmh 29.49 in998.6 mb - 0.05 in1.3 mm 0.20 in5.1 mm
12:45 AM 53.6°F12.0°C 52.8°F11.6°C 97% 1.9 mph W3.1 kmh W 3.0 mph4.8 kmh 29.51 in999.3 mb - 0.05 in1.3 mm 0.15 in3.8 mm
12:30 AM 53.7°F12.1°C 52.9°F11.6°C 97% 2.0 mph WNW3.2 kmh WNW 5.0 mph8.0 kmh 29.53 in1000.0 mb - 0.04 in1.0 mm 0.10 in2.5 mm
12:15 AM 53.7°F12.1°C 52.9°F11.6°C 97% 4.2 mph W6.8 kmh W 7.0 mph11.3 kmh 29.55 in1000.7 mb - 0.06 in1.5 mm 0.06 in1.5 mm
12:00 AM 53.7°F12.1°C 52.9°F11.6°C 97% 2.5 mph W4.0 kmh W 4.0 mph6.4 kmh 29.54 in1000.3 mb - 0.10 in2.5 mm 0.10 in2.5 mm